sensor_id;sensor_type;location;lat;lon;timestamp;temperature;humidity
72814;DHT22;60945;48.516;-2.768;2023-05-07T00:00:00;15.00;87.80
72814;DHT22;60945;48.516;-2.768;2023-05-07T00:02:26;15.00;87.80
72814;DHT22;60945;48.516;-2.768;2023-05-07T00:04:52;15.00;87.20
72814;DHT22;60945;48.516;-2.768;2023-05-07T00:07:18;15.00;87.50
72814;DHT22;60945;48.516;-2.768;2023-05-07T00:09:43;14.90;88.00
72814;DHT22;60945;48.516;-2.768;2023-05-07T00:12:09;14.90;88.00
72814;DHT22;60945;48.516;-2.768;2023-05-07T00:14:35;14.90;87.80
72814;DHT22;60945;48.516;-2.768;2023-05-07T00:17:01;14.90;88.40
72814;DHT22;60945;48.516;-2.768;2023-05-07T00:19:26;14.90;88.80
72814;DHT22;60945;48.516;-2.768;2023-05-07T00:21:52;14.90;89.10
72814;DHT22;60945;48.516;-2.768;2023-05-07T00:24:22;14.90;89.10
72814;DHT22;60945;48.516;-2.768;2023-05-07T00:26:48;14.90;89.20
72814;DHT22;60945;48.516;-2.768;2023-05-07T00:29:13;14.90;89.00
72814;DHT22;60945;48.516;-2.768;2023-05-07T00:31:39;14.90;89.20
72814;DHT22;60945;48.516;-2.768;2023-05-07T00:34:05;14.90;90.20
72814;DHT22;60945;48.516;-2.768;2023-05-07T00:36:31;14.80;90.30
72814;DHT22;60945;48.516;-2.768;2023-05-07T00:38:59;14.80;89.90
72814;DHT22;60945;48.516;-2.768;2023-05-07T00:41:25;14.90;90.10
72814;DHT22;60945;48.516;-2.768;2023-05-07T00:43:51;14.90;90.80
72814;DHT22;60945;48.516;-2.768;2023-05-07T00:46:18;15.00;90.70
72814;DHT22;60945;48.516;-2.768;2023-05-07T00:48:45;15.00;90.60
72814;DHT22;60945;48.516;-2.768;2023-05-07T00:51:11;15.00;90.10
72814;DHT22;60945;48.516;-2.768;2023-05-07T00:53:37;15.00;89.70
72814;DHT22;60945;48.516;-2.768;2023-05-07T00:56:03;15.00;89.80
72814;DHT22;60945;48.516;-2.768;2023-05-07T00:58:29;15.00;89.90
72814;DHT22;60945;48.516;-2.768;2023-05-07T01:00:55;14.90;90.40
72814;DHT22;60945;48.516;-2.768;2023-05-07T01:03:21;15.00;90.50
72814;DHT22;60945;48.516;-2.768;2023-05-07T01:05:48;15.00;90.30
72814;DHT22;60945;48.516;-2.768;2023-05-07T01:08:14;14.90;90.50
72814;DHT22;60945;48.516;-2.768;2023-05-07T01:10:41;14.90;91.00
72814;DHT22;60945;48.516;-2.768;2023-05-07T01:13:09;14.90;90.70
72814;DHT22;60945;48.516;-2.768;2023-05-07T01:15:36;15.00;89.60
72814;DHT22;60945;48.516;-2.768;2023-05-07T01:18:02;15.10;89.40
72814;DHT22;60945;48.516;-2.768;2023-05-07T01:20:28;15.10;88.90
72814;DHT22;60945;48.516;-2.768;2023-05-07T01:22:54;15.10;88.70
72814;DHT22;60945;48.516;-2.768;2023-05-07T01:25:20;15.00;89.10
72814;DHT22;60945;48.516;-2.768;2023-05-07T01:27:46;15.00;90.40
72814;DHT22;60945;48.516;-2.768;2023-05-07T01:30:12;14.90;90.30
72814;DHT22;60945;48.516;-2.768;2023-05-07T01:32:48;15.00;90.90
72814;DHT22;60945;48.516;-2.768;2023-05-07T01:35:19;15.00;90.50
72814;DHT22;60945;48.516;-2.768;2023-05-07T01:37:46;14.90;90.30
72814;DHT22;60945;48.516;-2.768;2023-05-07T01:40:13;15.00;90.30
72814;DHT22;60945;48.516;-2.768;2023-05-07T01:42:39;15.00;90.70
72814;DHT22;60945;48.516;-2.768;2023-05-07T01:45:06;15.00;89.90
72814;DHT22;60945;48.516;-2.768;2023-05-07T01:47:32;15.00;90.30
72814;DHT22;60945;48.516;-2.768;2023-05-07T01:49:58;15.10;90.10
72814;DHT22;60945;48.516;-2.768;2023-05-07T01:52:24;15.00;90.10
72814;DHT22;60945;48.516;-2.768;2023-05-07T01:54:50;15.00;89.90
72814;DHT22;60945;48.516;-2.768;2023-05-07T01:57:16;15.00;90.10
72814;DHT22;60945;48.516;-2.768;2023-05-07T01:59:41;15.10;89.10
72814;DHT22;60945;48.516;-2.768;2023-05-07T02:02:07;15.00;88.80
72814;DHT22;60945;48.516;-2.768;2023-05-07T02:04:32;15.10;88.50
72814;DHT22;60945;48.516;-2.768;2023-05-07T02:06:58;15.00;88.50
72814;DHT22;60945;48.516;-2.768;2023-05-07T02:09:24;15.00;88.80
72814;DHT22;60945;48.516;-2.768;2023-05-07T02:11:49;15.00;88.40
72814;DHT22;60945;48.516;-2.768;2023-05-07T02:14:15;15.00;88.60
72814;DHT22;60945;48.516;-2.768;2023-05-07T02:16:41;15.00;88.60
72814;DHT22;60945;48.516;-2.768;2023-05-07T02:19:07;15.00;88.50
72814;DHT22;60945;48.516;-2.768;2023-05-07T02:21:32;15.10;88.80
72814;DHT22;60945;48.516;-2.768;2023-05-07T02:23:58;15.00;88.70
72814;DHT22;60945;48.516;-2.768;2023-05-07T02:26:23;15.00;88.30
72814;DHT22;60945;48.516;-2.768;2023-05-07T02:28:49;15.00;88.30
72814;DHT22;60945;48.516;-2.768;2023-05-07T02:31:15;15.00;88.20
72814;DHT22;60945;48.516;-2.768;2023-05-07T02:33:43;14.90;88.50
72814;DHT22;60945;48.516;-2.768;2023-05-07T02:36:11;14.90;88.90
72814;DHT22;60945;48.516;-2.768;2023-05-07T02:38:37;14.90;88.50
72814;DHT22;60945;48.516;-2.768;2023-05-07T02:41:02;14.90;88.90
72814;DHT22;60945;48.516;-2.768;2023-05-07T02:43:28;14.90;88.70
72814;DHT22;60945;48.516;-2.768;2023-05-07T02:46:07;14.80;89.40
72814;DHT22;60945;48.516;-2.768;2023-05-07T02:48:33;14.80;89.30
72814;DHT22;60945;48.516;-2.768;2023-05-07T02:51:00;14.70;89.30
72814;DHT22;60945;48.516;-2.768;2023-05-07T02:53:26;14.70;89.70
72814;DHT22;60945;48.516;-2.768;2023-05-07T02:55:53;14.70;89.80
72814;DHT22;60945;48.516;-2.768;2023-05-07T02:58:19;14.70;89.60
72814;DHT22;60945;48.516;-2.768;2023-05-07T03:00:45;14.70;89.60
72814;DHT22;60945;48.516;-2.768;2023-05-07T03:03:10;14.70;89.40
72814;DHT22;60945;48.516;-2.768;2023-05-07T03:05:36;14.60;89.40
72814;DHT22;60945;48.516;-2.768;2023-05-07T03:08:02;14.60;89.50
72814;DHT22;60945;48.516;-2.768;2023-05-07T03:10:29;14.60;89.90
72814;DHT22;60945;48.516;-2.768;2023-05-07T03:12:55;14.60;90.00
72814;DHT22;60945;48.516;-2.768;2023-05-07T03:15:21;14.70;89.40
72814;DHT22;60945;48.516;-2.768;2023-05-07T03:17:47;14.70;89.70
72814;DHT22;60945;48.516;-2.768;2023-05-07T03:20:13;14.70;89.80
72814;DHT22;60945;48.516;-2.768;2023-05-07T03:22:39;14.70;89.50
72814;DHT22;60945;48.516;-2.768;2023-05-07T03:25:06;14.70;89.50
72814;DHT22;60945;48.516;-2.768;2023-05-07T03:27:34;14.70;89.50
72814;DHT22;60945;48.516;-2.768;2023-05-07T03:30:00;14.70;89.30
72814;DHT22;60945;48.516;-2.768;2023-05-07T03:32:25;14.60;89.10
72814;DHT22;60945;48.516;-2.768;2023-05-07T03:34:51;14.60;89.20
72814;DHT22;60945;48.516;-2.768;2023-05-07T03:37:17;14.70;89.00
72814;DHT22;60945;48.516;-2.768;2023-05-07T03:39:43;14.70;88.90
72814;DHT22;60945;48.516;-2.768;2023-05-07T03:42:08;14.70;88.90
72814;DHT22;60945;48.516;-2.768;2023-05-07T03:44:37;14.60;88.70
72814;DHT22;60945;48.516;-2.768;2023-05-07T03:47:03;14.50;89.40
72814;DHT22;60945;48.516;-2.768;2023-05-07T03:49:29;14.60;89.30
72814;DHT22;60945;48.516;-2.768;2023-05-07T03:51:54;14.60;88.80
72814;DHT22;60945;48.516;-2.768;2023-05-07T03:54:21;14.60;88.60
72814;DHT22;60945;48.516;-2.768;2023-05-07T03:56:46;14.60;88.30
72814;DHT22;60945;48.516;-2.768;2023-05-07T03:59:12;14.60;88.20
72814;DHT22;60945;48.516;-2.768;2023-05-07T04:01:38;14.60;87.90
72814;DHT22;60945;48.516;-2.768;2023-05-07T04:04:04;14.50;88.10
72814;DHT22;60945;48.516;-2.768;2023-05-07T04:06:30;14.50;88.20
72814;DHT22;60945;48.516;-2.768;2023-05-07T04:08:56;14.60;88.40
72814;DHT22;60945;48.516;-2.768;2023-05-07T04:11:22;14.50;88.60
72814;DHT22;60945;48.516;-2.768;2023-05-07T04:13:48;14.50;88.20
72814;DHT22;60945;48.516;-2.768;2023-05-07T04:16:13;14.50;87.80
72814;DHT22;60945;48.516;-2.768;2023-05-07T04:18:39;14.50;87.50
72814;DHT22;60945;48.516;-2.768;2023-05-07T04:21:05;14.50;87.40
72814;DHT22;60945;48.516;-2.768;2023-05-07T04:23:31;14.50;87.50
72814;DHT22;60945;48.516;-2.768;2023-05-07T04:25:56;14.50;87.40
72814;DHT22;60945;48.516;-2.768;2023-05-07T04:28:24;14.40;87.60
72814;DHT22;60945;48.516;-2.768;2023-05-07T04:30:51;14.40;87.90
72814;DHT22;60945;48.516;-2.768;2023-05-07T04:33:16;14.30;88.00
72814;DHT22;60945;48.516;-2.768;2023-05-07T04:35:42;14.20;88.00
72814;DHT22;60945;48.516;-2.768;2023-05-07T04:38:08;14.20;88.20
72814;DHT22;60945;48.516;-2.768;2023-05-07T04:40:35;14.20;88.30
72814;DHT22;60945;48.516;-2.768;2023-05-07T04:43:01;14.10;88.00
72814;DHT22;60945;48.516;-2.768;2023-05-07T04:45:27;14.00;88.90
72814;DHT22;60945;48.516;-2.768;2023-05-07T04:47:53;13.90;89.30
72814;DHT22;60945;48.516;-2.768;2023-05-07T04:50:18;13.90;88.90
72814;DHT22;60945;48.516;-2.768;2023-05-07T04:52:45;13.80;89.40
72814;DHT22;60945;48.516;-2.768;2023-05-07T04:55:11;13.80;89.80
72814;DHT22;60945;48.516;-2.768;2023-05-07T04:57:36;13.90;89.40
72814;DHT22;60945;48.516;-2.768;2023-05-07T05:00:05;13.90;88.80
72814;DHT22;60945;48.516;-2.768;2023-05-07T05:02:31;14.00;88.60
72814;DHT22;60945;48.516;-2.768;2023-05-07T05:05:00;13.90;88.50
72814;DHT22;60945;48.516;-2.768;2023-05-07T05:07:27;14.00;87.90
72814;DHT22;60945;48.516;-2.768;2023-05-07T05:09:54;14.00;87.70
72814;DHT22;60945;48.516;-2.768;2023-05-07T05:12:20;14.10;87.80
72814;DHT22;60945;48.516;-2.768;2023-05-07T05:14:45;14.10;88.00
72814;DHT22;60945;48.516;-2.768;2023-05-07T05:17:11;14.10;87.80
72814;DHT22;60945;48.516;-2.768;2023-05-07T05:19:36;14.10;88.00
72814;DHT22;60945;48.516;-2.768;2023-05-07T05:22:02;14.10;87.30
72814;DHT22;60945;48.516;-2.768;2023-05-07T05:24:30;14.20;87.20
72814;DHT22;60945;48.516;-2.768;2023-05-07T05:26:55;14.10;87.90
72814;DHT22;60945;48.516;-2.768;2023-05-07T05:29:21;14.20;86.60
72814;DHT22;60945;48.516;-2.768;2023-05-07T05:31:47;14.30;86.40
72814;DHT22;60945;48.516;-2.768;2023-05-07T05:34:13;14.30;86.60
72814;DHT22;60945;48.516;-2.768;2023-05-07T05:36:38;14.40;85.70
72814;DHT22;60945;48.516;-2.768;2023-05-07T05:39:04;14.40;85.70
72814;DHT22;60945;48.516;-2.768;2023-05-07T05:41:30;14.40;85.80
72814;DHT22;60945;48.516;-2.768;2023-05-07T05:43:55;14.40;85.00
72814;DHT22;60945;48.516;-2.768;2023-05-07T05:46:21;14.40;85.60
72814;DHT22;60945;48.516;-2.768;2023-05-07T05:48:47;14.30;85.40
72814;DHT22;60945;48.516;-2.768;2023-05-07T05:51:12;14.40;84.90
72814;DHT22;60945;48.516;-2.768;2023-05-07T05:53:38;14.40;85.40
72814;DHT22;60945;48.516;-2.768;2023-05-07T05:56:04;14.50;84.20
72814;DHT22;60945;48.516;-2.768;2023-05-07T05:58:30;14.60;83.70
72814;DHT22;60945;48.516;-2.768;2023-05-07T06:00:55;14.60;84.10
72814;DHT22;60945;48.516;-2.768;2023-05-07T06:03:22;14.50;84.00
72814;DHT22;60945;48.516;-2.768;2023-05-07T06:05:48;14.60;83.90
72814;DHT22;60945;48.516;-2.768;2023-05-07T06:08:14;14.60;83.70
72814;DHT22;60945;48.516;-2.768;2023-05-07T06:10:40;14.80;83.70
72814;DHT22;60945;48.516;-2.768;2023-05-07T06:13:06;14.70;83.20
72814;DHT22;60945;48.516;-2.768;2023-05-07T06:15:31;14.80;81.70
72814;DHT22;60945;48.516;-2.768;2023-05-07T06:17:57;14.80;81.60
72814;DHT22;60945;48.516;-2.768;2023-05-07T06:20:23;14.80;82.40
72814;DHT22;60945;48.516;-2.768;2023-05-07T06:22:48;14.70;82.30
72814;DHT22;60945;48.516;-2.768;2023-05-07T06:25:14;14.80;82.70
72814;DHT22;60945;48.516;-2.768;2023-05-07T06:27:40;14.70;83.00
72814;DHT22;60945;48.516;-2.768;2023-05-07T06:30:06;14.70;83.00
72814;DHT22;60945;48.516;-2.768;2023-05-07T06:32:32;14.70;83.40
72814;DHT22;60945;48.516;-2.768;2023-05-07T06:34:58;14.70;83.20
72814;DHT22;60945;48.516;-2.768;2023-05-07T06:37:23;14.70;82.90
72814;DHT22;60945;48.516;-2.768;2023-05-07T06:39:49;14.70;82.70
72814;DHT22;60945;48.516;-2.768;2023-05-07T06:42:15;14.60;82.80
72814;DHT22;60945;48.516;-2.768;2023-05-07T06:44:40;14.50;83.30
72814;DHT22;60945;48.516;-2.768;2023-05-07T06:47:06;14.60;83.10
72814;DHT22;60945;48.516;-2.768;2023-05-07T06:49:32;14.30;84.50
72814;DHT22;60945;48.516;-2.768;2023-05-07T06:51:58;14.40;83.50
72814;DHT22;60945;48.516;-2.768;2023-05-07T06:54:23;14.60;82.60
72814;DHT22;60945;48.516;-2.768;2023-05-07T06:56:49;14.60;83.10
72814;DHT22;60945;48.516;-2.768;2023-05-07T06:59:15;14.60;83.10
72814;DHT22;60945;48.516;-2.768;2023-05-07T07:01:41;14.60;82.90
72814;DHT22;60945;48.516;-2.768;2023-05-07T07:04:06;14.80;82.00
72814;DHT22;60945;48.516;-2.768;2023-05-07T07:06:32;14.80;81.90
72814;DHT22;60945;48.516;-2.768;2023-05-07T07:08:58;14.80;82.00
72814;DHT22;60945;48.516;-2.768;2023-05-07T07:11:24;14.80;81.70
72814;DHT22;60945;48.516;-2.768;2023-05-07T07:13:50;14.80;82.00
72814;DHT22;60945;48.516;-2.768;2023-05-07T07:16:16;14.60;83.00
72814;DHT22;60945;48.516;-2.768;2023-05-07T07:18:42;14.70;82.60
72814;DHT22;60945;48.516;-2.768;2023-05-07T07:21:07;14.70;82.50
72814;DHT22;60945;48.516;-2.768;2023-05-07T07:23:33;14.60;82.50
72814;DHT22;60945;48.516;-2.768;2023-05-07T07:25:58;14.70;82.40
72814;DHT22;60945;48.516;-2.768;2023-05-07T07:28:24;14.60;82.20
72814;DHT22;60945;48.516;-2.768;2023-05-07T07:30:50;14.60;82.80
72814;DHT22;60945;48.516;-2.768;2023-05-07T07:33:18;14.70;82.10
72814;DHT22;60945;48.516;-2.768;2023-05-07T07:35:44;14.80;81.50
72814;DHT22;60945;48.516;-2.768;2023-05-07T07:38:10;15.00;80.80
72814;DHT22;60945;48.516;-2.768;2023-05-07T07:40:35;15.10;80.60
72814;DHT22;60945;48.516;-2.768;2023-05-07T07:43:01;15.20;80.30
72814;DHT22;60945;48.516;-2.768;2023-05-07T07:45:27;15.20;80.00
72814;DHT22;60945;48.516;-2.768;2023-05-07T07:47:52;15.30;79.40
72814;DHT22;60945;48.516;-2.768;2023-05-07T07:50:18;15.40;79.60
72814;DHT22;60945;48.516;-2.768;2023-05-07T07:52:44;15.30;79.10
72814;DHT22;60945;48.516;-2.768;2023-05-07T07:55:10;15.10;79.80
72814;DHT22;60945;48.516;-2.768;2023-05-07T07:57:36;14.90;80.60
72814;DHT22;60945;48.516;-2.768;2023-05-07T08:00:02;15.00;81.00
72814;DHT22;60945;48.516;-2.768;2023-05-07T08:02:27;15.10;80.70
72814;DHT22;60945;48.516;-2.768;2023-05-07T08:04:53;15.00;80.50
72814;DHT22;60945;48.516;-2.768;2023-05-07T08:07:19;14.90;80.70
72814;DHT22;60945;48.516;-2.768;2023-05-07T08:09:46;14.90;81.30
72814;DHT22;60945;48.516;-2.768;2023-05-07T08:12:12;14.90;81.20
72814;DHT22;60945;48.516;-2.768;2023-05-07T08:14:38;15.00;80.60
72814;DHT22;60945;48.516;-2.768;2023-05-07T08:17:03;14.90;80.90
72814;DHT22;60945;48.516;-2.768;2023-05-07T08:19:29;15.00;82.00
72814;DHT22;60945;48.516;-2.768;2023-05-07T08:21:55;15.00;81.30
72814;DHT22;60945;48.516;-2.768;2023-05-07T08:24:21;14.70;82.40
72814;DHT22;60945;48.516;-2.768;2023-05-07T08:26:46;14.80;82.40
72814;DHT22;60945;48.516;-2.768;2023-05-07T08:29:12;14.70;82.40
72814;DHT22;60945;48.516;-2.768;2023-05-07T08:31:38;14.80;82.30
72814;DHT22;60945;48.516;-2.768;2023-05-07T08:34:06;14.80;82.60
72814;DHT22;60945;48.516;-2.768;2023-05-07T08:36:32;14.90;82.40
72814;DHT22;60945;48.516;-2.768;2023-05-07T08:38:58;14.80;80.20
72814;DHT22;60945;48.516;-2.768;2023-05-07T08:41:24;14.70;80.00
72814;DHT22;60945;48.516;-2.768;2023-05-07T08:43:50;14.60;80.50
72814;DHT22;60945;48.516;-2.768;2023-05-07T08:46:22;14.70;79.60
72814;DHT22;60945;48.516;-2.768;2023-05-07T08:48:49;14.70;79.60
72814;DHT22;60945;48.516;-2.768;2023-05-07T08:51:19;14.80;79.60
72814;DHT22;60945;48.516;-2.768;2023-05-07T08:53:46;14.80;79.30
72814;DHT22;60945;48.516;-2.768;2023-05-07T08:56:14;15.00;79.30
72814;DHT22;60945;48.516;-2.768;2023-05-07T08:58:45;15.00;78.90
72814;DHT22;60945;48.516;-2.768;2023-05-07T09:01:16;15.00;79.00
72814;DHT22;60945;48.516;-2.768;2023-05-07T09:03:45;15.10;78.70
72814;DHT22;60945;48.516;-2.768;2023-05-07T09:06:14;15.20;78.90
72814;DHT22;60945;48.516;-2.768;2023-05-07T09:08:40;15.10;79.00
72814;DHT22;60945;48.516;-2.768;2023-05-07T09:11:06;15.10;79.00
72814;DHT22;60945;48.516;-2.768;2023-05-07T09:13:31;15.20;78.60
72814;DHT22;60945;48.516;-2.768;2023-05-07T09:15:57;15.30;78.40
72814;DHT22;60945;48.516;-2.768;2023-05-07T09:18:26;15.40;78.10
72814;DHT22;60945;48.516;-2.768;2023-05-07T09:20:54;15.30;79.30
72814;DHT22;60945;48.516;-2.768;2023-05-07T09:23:20;15.50;78.30
72814;DHT22;60945;48.516;-2.768;2023-05-07T09:25:46;15.40;78.20
72814;DHT22;60945;48.516;-2.768;2023-05-07T09:28:11;15.30;78.70
72814;DHT22;60945;48.516;-2.768;2023-05-07T09:30:37;15.40;78.10
72814;DHT22;60945;48.516;-2.768;2023-05-07T09:33:03;15.60;77.20
72814;DHT22;60945;48.516;-2.768;2023-05-07T09:35:30;15.70;76.70
72814;DHT22;60945;48.516;-2.768;2023-05-07T09:37:58;15.60;76.50
72814;DHT22;60945;48.516;-2.768;2023-05-07T09:40:29;15.80;75.90
72814;DHT22;60945;48.516;-2.768;2023-05-07T09:42:55;16.00;75.50
72814;DHT22;60945;48.516;-2.768;2023-05-07T09:45:28;15.90;74.80
72814;DHT22;60945;48.516;-2.768;2023-05-07T09:47:56;15.90;75.30
72814;DHT22;60945;48.516;-2.768;2023-05-07T09:50:26;15.80;75.30
72814;DHT22;60945;48.516;-2.768;2023-05-07T09:52:54;15.90;75.50
72814;DHT22;60945;48.516;-2.768;2023-05-07T09:55:21;15.80;74.70
72814;DHT22;60945;48.516;-2.768;2023-05-07T09:57:50;15.80;75.80
72814;DHT22;60945;48.516;-2.768;2023-05-07T10:00:19;15.80;75.60
72814;DHT22;60945;48.516;-2.768;2023-05-07T10:02:47;15.60;75.60
72814;DHT22;60945;48.516;-2.768;2023-05-07T10:05:14;15.60;77.10
72814;DHT22;60945;48.516;-2.768;2023-05-07T10:07:41;15.40;77.00
72814;DHT22;60945;48.516;-2.768;2023-05-07T10:10:07;15.30;78.30
72814;DHT22;60945;48.516;-2.768;2023-05-07T10:12:32;15.50;77.60
72814;DHT22;60945;48.516;-2.768;2023-05-07T10:15:05;15.40;78.30
72814;DHT22;60945;48.516;-2.768;2023-05-07T10:17:32;15.20;78.60
72814;DHT22;60945;48.516;-2.768;2023-05-07T10:19:58;15.30;78.30
72814;DHT22;60945;48.516;-2.768;2023-05-07T10:22:25;15.00;78.80
72814;DHT22;60945;48.516;-2.768;2023-05-07T10:24:53;15.10;79.40
72814;DHT22;60945;48.516;-2.768;2023-05-07T10:27:22;15.30;79.30
72814;DHT22;60945;48.516;-2.768;2023-05-07T10:35:16;15.60;77.60
72814;DHT22;60945;48.516;-2.768;2023-05-07T10:37:44;15.40;78.60
72814;DHT22;60945;48.516;-2.768;2023-05-07T10:40:10;15.30;78.10
72814;DHT22;60945;48.516;-2.768;2023-05-07T10:42:36;15.30;79.10
72814;DHT22;60945;48.516;-2.768;2023-05-07T10:45:13;15.30;79.30
72814;DHT22;60945;48.516;-2.768;2023-05-07T10:48:05;15.30;78.90
72814;DHT22;60945;48.516;-2.768;2023-05-07T10:50:31;15.40;79.40
72814;DHT22;60945;48.516;-2.768;2023-05-07T10:55:51;15.40;78.70
72814;DHT22;60945;48.516;-2.768;2023-05-07T10:58:36;15.40;77.90
72814;DHT22;60945;48.516;-2.768;2023-05-07T11:01:03;15.50;78.20
72814;DHT22;60945;48.516;-2.768;2023-05-07T11:03:29;15.60;77.80
72814;DHT22;60945;48.516;-2.768;2023-05-07T11:06:15;15.70;76.80
72814;DHT22;60945;48.516;-2.768;2023-05-07T11:08:57;15.60;77.20
72814;DHT22;60945;48.516;-2.768;2023-05-07T11:11:44;15.70;76.60
72814;DHT22;60945;48.516;-2.768;2023-05-07T11:14:11;15.70;76.20
72814;DHT22;60945;48.516;-2.768;2023-05-07T11:16:41;15.50;76.90
72814;DHT22;60945;48.516;-2.768;2023-05-07T11:19:07;15.40;77.70
72814;DHT22;60945;48.516;-2.768;2023-05-07T11:21:37;15.60;77.40
72814;DHT22;60945;48.516;-2.768;2023-05-07T11:24:04;15.80;76.70
72814;DHT22;60945;48.516;-2.768;2023-05-07T11:26:47;15.60;76.70
72814;DHT22;60945;48.516;-2.768;2023-05-07T11:29:14;15.70;77.30
72814;DHT22;60945;48.516;-2.768;2023-05-07T11:31:40;15.60;77.50
72814;DHT22;60945;48.516;-2.768;2023-05-07T11:34:06;15.60;77.60
72814;DHT22;60945;48.516;-2.768;2023-05-07T11:36:33;15.50;78.80
72814;DHT22;60945;48.516;-2.768;2023-05-07T11:38:59;15.40;78.10
72814;DHT22;60945;48.516;-2.768;2023-05-07T11:41:35;15.70;76.40
72814;DHT22;60945;48.516;-2.768;2023-05-07T11:44:02;15.70;76.20
72814;DHT22;60945;48.516;-2.768;2023-05-07T11:46:28;15.70;75.00
72814;DHT22;60945;48.516;-2.768;2023-05-07T11:48:55;15.60;75.90
72814;DHT22;60945;48.516;-2.768;2023-05-07T11:51:23;15.60;76.60
72814;DHT22;60945;48.516;-2.768;2023-05-07T11:53:49;15.30;78.00
72814;DHT22;60945;48.516;-2.768;2023-05-07T11:56:17;15.10;77.90
72814;DHT22;60945;48.516;-2.768;2023-05-07T11:58:44;15.30;77.10
72814;DHT22;60945;48.516;-2.768;2023-05-07T12:01:11;15.40;75.90
72814;DHT22;60945;48.516;-2.768;2023-05-07T12:03:40;15.60;75.70
72814;DHT22;60945;48.516;-2.768;2023-05-07T12:06:08;15.90;74.60
72814;DHT22;60945;48.516;-2.768;2023-05-07T12:08:36;16.00;74.20
72814;DHT22;60945;48.516;-2.768;2023-05-07T12:11:03;15.80;74.60
72814;DHT22;60945;48.516;-2.768;2023-05-07T12:13:32;15.70;74.60
72814;DHT22;60945;48.516;-2.768;2023-05-07T12:15:57;15.50;75.50
72814;DHT22;60945;48.516;-2.768;2023-05-07T12:18:23;15.50;75.70
72814;DHT22;60945;48.516;-2.768;2023-05-07T12:20:50;15.50;76.10
72814;DHT22;60945;48.516;-2.768;2023-05-07T12:23:16;15.40;76.10
72814;DHT22;60945;48.516;-2.768;2023-05-07T12:25:43;15.20;76.60
72814;DHT22;60945;48.516;-2.768;2023-05-07T12:28:16;15.20;77.00
72814;DHT22;60945;48.516;-2.768;2023-05-07T12:30:46;15.30;77.20
72814;DHT22;60945;48.516;-2.768;2023-05-07T12:33:22;15.40;76.00
72814;DHT22;60945;48.516;-2.768;2023-05-07T12:35:48;15.50;76.60
72814;DHT22;60945;48.516;-2.768;2023-05-07T12:38:16;15.50;75.70
72814;DHT22;60945;48.516;-2.768;2023-05-07T12:40:47;15.40;75.90
72814;DHT22;60945;48.516;-2.768;2023-05-07T12:43:27;15.40;75.50
72814;DHT22;60945;48.516;-2.768;2023-05-07T12:45:59;15.60;75.30
72814;DHT22;60945;48.516;-2.768;2023-05-07T12:48:25;15.80;73.70
72814;DHT22;60945;48.516;-2.768;2023-05-07T12:50:56;15.80;73.70
72814;DHT22;60945;48.516;-2.768;2023-05-07T12:53:24;15.80;73.10
72814;DHT22;60945;48.516;-2.768;2023-05-07T12:55:59;15.80;73.10
72814;DHT22;60945;48.516;-2.768;2023-05-07T12:58:27;16.10;72.40
72814;DHT22;60945;48.516;-2.768;2023-05-07T13:00:54;16.30;71.90
72814;DHT22;60945;48.516;-2.768;2023-05-07T13:03:30;16.20;71.80
72814;DHT22;60945;48.516;-2.768;2023-05-07T13:06:05;16.20;71.50
72814;DHT22;60945;48.516;-2.768;2023-05-07T13:08:38;16.30;71.90
72814;DHT22;60945;48.516;-2.768;2023-05-07T13:11:13;16.20;72.20
72814;DHT22;60945;48.516;-2.768;2023-05-07T13:13:40;16.30;71.20
72814;DHT22;60945;48.516;-2.768;2023-05-07T13:16:09;16.10;71.80
72814;DHT22;60945;48.516;-2.768;2023-05-07T13:18:35;16.10;71.60
72814;DHT22;60945;48.516;-2.768;2023-05-07T13:21:01;16.00;71.80
72814;DHT22;60945;48.516;-2.768;2023-05-07T13:23:28;16.00;72.50
72814;DHT22;60945;48.516;-2.768;2023-05-07T13:25:53;15.90;71.50
72814;DHT22;60945;48.516;-2.768;2023-05-07T13:28:20;15.80;72.60
72814;DHT22;60945;48.516;-2.768;2023-05-07T13:30:46;15.90;71.70
72814;DHT22;60945;48.516;-2.768;2023-05-07T13:33:12;16.00;71.80
72814;DHT22;60945;48.516;-2.768;2023-05-07T13:35:37;16.30;70.60
72814;DHT22;60945;48.516;-2.768;2023-05-07T13:38:04;16.50;70.80
72814;DHT22;60945;48.516;-2.768;2023-05-07T13:40:29;16.30;70.70
72814;DHT22;60945;48.516;-2.768;2023-05-07T13:42:57;16.40;70.50
72814;DHT22;60945;48.516;-2.768;2023-05-07T13:45:24;16.60;70.20
72814;DHT22;60945;48.516;-2.768;2023-05-07T13:47:51;16.80;70.10
72814;DHT22;60945;48.516;-2.768;2023-05-07T13:50:17;16.70;69.50
72814;DHT22;60945;48.516;-2.768;2023-05-07T13:52:44;16.60;69.20
72814;DHT22;60945;48.516;-2.768;2023-05-07T13:55:19;16.50;69.40
72814;DHT22;60945;48.516;-2.768;2023-05-07T13:57:46;16.30;70.20
72814;DHT22;60945;48.516;-2.768;2023-05-07T14:00:13;16.40;70.00
72814;DHT22;60945;48.516;-2.768;2023-05-07T14:02:38;16.30;70.40
72814;DHT22;60945;48.516;-2.768;2023-05-07T14:05:04;16.40;70.00
72814;DHT22;60945;48.516;-2.768;2023-05-07T14:07:30;16.50;70.20
72814;DHT22;60945;48.516;-2.768;2023-05-07T14:09:56;16.60;70.30
72814;DHT22;60945;48.516;-2.768;2023-05-07T14:12:25;16.40;71.40
72814;DHT22;60945;48.516;-2.768;2023-05-07T14:14:53;16.20;71.20
72814;DHT22;60945;48.516;-2.768;2023-05-07T14:17:19;16.00;71.50
72814;DHT22;60945;48.516;-2.768;2023-05-07T14:19:45;15.90;72.20
72814;DHT22;60945;48.516;-2.768;2023-05-07T14:22:12;16.00;72.30
72814;DHT22;60945;48.516;-2.768;2023-05-07T14:24:38;15.90;72.60
72814;DHT22;60945;48.516;-2.768;2023-05-07T14:27:05;15.80;72.10
72814;DHT22;60945;48.516;-2.768;2023-05-07T14:29:31;15.60;72.50
72814;DHT22;60945;48.516;-2.768;2023-05-07T14:31:56;15.50;73.50
72814;DHT22;60945;48.516;-2.768;2023-05-07T14:34:22;15.70;73.20
72814;DHT22;60945;48.516;-2.768;2023-05-07T14:36:48;15.60;73.40
72814;DHT22;60945;48.516;-2.768;2023-05-07T14:39:13;15.60;73.20
72814;DHT22;60945;48.516;-2.768;2023-05-07T14:41:39;15.60;73.50
72814;DHT22;60945;48.516;-2.768;2023-05-07T14:44:04;15.60;73.40
72814;DHT22;60945;48.516;-2.768;2023-05-07T14:46:30;15.60;73.20
72814;DHT22;60945;48.516;-2.768;2023-05-07T14:48:57;15.70;73.50
72814;DHT22;60945;48.516;-2.768;2023-05-07T14:51:22;15.70;73.40
72814;DHT22;60945;48.516;-2.768;2023-05-07T14:53:50;15.70;74.10
72814;DHT22;60945;48.516;-2.768;2023-05-07T14:56:16;15.80;74.00
72814;DHT22;60945;48.516;-2.768;2023-05-07T14:58:42;15.80;73.90
72814;DHT22;60945;48.516;-2.768;2023-05-07T15:01:08;15.50;73.50
72814;DHT22;60945;48.516;-2.768;2023-05-07T15:03:37;15.40;74.50
72814;DHT22;60945;48.516;-2.768;2023-05-07T15:06:03;15.40;74.50
72814;DHT22;60945;48.516;-2.768;2023-05-07T15:08:28;15.60;74.20
72814;DHT22;60945;48.516;-2.768;2023-05-07T15:10:54;15.90;73.00
72814;DHT22;60945;48.516;-2.768;2023-05-07T15:13:20;15.80;73.40
72814;DHT22;60945;48.516;-2.768;2023-05-07T15:15:46;15.70;73.10
72814;DHT22;60945;48.516;-2.768;2023-05-07T15:18:12;15.50;73.80
72814;DHT22;60945;48.516;-2.768;2023-05-07T15:20:38;15.50;73.30